sensor_id;sensor_type;location;lat;lon;timestamp;pressure;altitude;pressure_sealevel;temperature;humidity
54321;BME280;40219;55.838;-4.266;2022-07-04T00:02:00;101196.49;;;14.38;43.58
54321;BME280;40219;55.838;-4.266;2022-07-04T00:04:28;101204.14;;;14.17;43.40
54321;BME280;40219;55.838;-4.266;2022-07-04T00:06:56;101206.87;;;14.33;43.59
54321;BME280;40219;55.838;-4.266;2022-07-04T00:09:24;101204.93;;;14.26;43.56
54321;BME280;40219;55.838;-4.266;2022-07-04T00:11:51;101199.16;;;14.10;43.46
54321;BME280;40219;55.838;-4.266;2022-07-04T00:14:19;101203.19;;;13.93;43.66
54321;BME280;40219;55.838;-4.266;2022-07-04T00:16:47;101204.69;;;14.06;43.58
54321;BME280;40219;55.838;-4.266;2022-07-04T00:19:15;101199.32;;;14.14;43.48
54321;BME280;40219;55.838;-4.266;2022-07-04T00:21:43;101194.06;;;14.15;43.47
54321;BME280;40219;55.838;-4.266;2022-07-04T00:24:10;101194.23;;;14.26;43.24
54321;BME280;40219;55.838;-4.266;2022-07-04T00:26:38;101189.71;;;14.12;43.47
54321;BME280;40219;55.838;-4.266;2022-07-04T00:29:06;101190.72;;;13.99;43.43
54321;BME280;40219;55.838;-4.266;2022-07-04T00:31:34;101197.97;;;14.30;43.35
54321;BME280;40219;55.838;-4.266;2022-07-04T00:34:02;101184.34;;;13.88;43.53
54321;BME280;40219;55.838;-4.266;2022-07-04T00:36:29;101183.39;;;13.68;43.80
54321;BME280;40219;55.838;-4.266;2022-07-04T00:38:56;101184.97;;;13.64;43.97
54321;BME280;40219;55.838;-4.266;2022-07-04T00:41:23;101177.54;;;13.68;43.96
54321;BME280;40219;55.838;-4.266;2022-07-04T00:44:08;101177.36;;;13.99;43.69
54321;BME280;40219;55.838;-4.266;2022-07-04T00:46:36;101188.17;;;14.00;43.78
54321;BME280;40219;55.838;-4.266;2022-07-04T00:49:04;101177.34;;;14.15;43.80
54321;BME280;40219;55.838;-4.266;2022-07-04T00:51:31;101182.40;;;13.86;44.04
54321;BME280;40219;55.838;-4.266;2022-07-04T00:53:59;101176.89;;;13.64;44.32
54321;BME280;40219;55.838;-4.266;2022-07-04T00:56:26;101173.14;;;13.79;44.73
54321;BME280;40219;55.838;-4.266;2022-07-04T00:58:53;101165.11;;;13.82;44.83
54321;BME280;40219;55.838;-4.266;2022-07-04T01:01:20;101162.18;;;13.83;45.08
54321;BME280;40219;55.838;-4.266;2022-07-04T01:03:48;101158.66;;;13.83;45.08
54321;BME280;40219;55.838;-4.266;2022-07-04T01:06:15;101144.46;;;13.85;44.98
54321;BME280;40219;55.838;-4.266;2022-07-04T01:08:44;101151.87;;;13.79;45.06
54321;BME280;40219;55.838;-4.266;2022-07-04T01:11:12;101154.60;;;13.78;45.01
54321;BME280;40219;55.838;-4.266;2022-07-04T01:13:41;101151.19;;;13.69;45.40
54321;BME280;40219;55.838;-4.266;2022-07-04T01:16:10;101145.86;;;13.55;45.98
54321;BME280;40219;55.838;-4.266;2022-07-04T01:18:38;101150.22;;;13.49;46.05
54321;BME280;40219;55.838;-4.266;2022-07-04T01:21:06;101146.75;;;13.31;46.36
54321;BME280;40219;55.838;-4.266;2022-07-04T01:23:37;101145.49;;;13.48;46.84
54321;BME280;40219;55.838;-4.266;2022-07-04T01:26:05;101165.36;;;13.08;47.57
54321;BME280;40219;55.838;-4.266;2022-07-04T01:28:33;101152.09;;;13.50;47.72
54321;BME280;40219;55.838;-4.266;2022-07-04T01:31:00;101145.52;;;13.63;47.78
54321;BME280;40219;55.838;-4.266;2022-07-04T01:33:28;101155.95;;;13.69;47.68
54321;BME280;40219;55.838;-4.266;2022-07-04T01:35:56;101153.97;;;13.62;47.83
54321;BME280;40219;55.838;-4.266;2022-07-04T01:38:24;101150.44;;;13.58;47.74
54321;BME280;40219;55.838;-4.266;2022-07-04T01:40:52;101153.76;;;13.55;47.62
54321;BME280;40219;55.838;-4.266;2022-07-04T01:43:20;101157.00;;;13.75;47.92
54321;BME280;40219;55.838;-4.266;2022-07-04T01:45:48;101158.70;;;13.22;48.33
54321;BME280;40219;55.838;-4.266;2022-07-04T01:48:16;101152.92;;;13.22;49.18
54321;BME280;40219;55.838;-4.266;2022-07-04T01:50:44;101158.98;;;12.89;49.37
54321;BME280;40219;55.838;-4.266;2022-07-04T01:53:11;101150.75;;;12.61;50.28
54321;BME280;40219;55.838;-4.266;2022-07-04T01:55:39;101148.37;;;12.44;51.31
54321;BME280;40219;55.838;-4.266;2022-07-04T01:58:07;101150.45;;;12.43;51.80
54321;BME280;40219;55.838;-4.266;2022-07-04T02:00:35;101162.39;;;12.42;52.21
54321;BME280;40219;55.838;-4.266;2022-07-04T02:03:02;101154.43;;;12.47;52.64
54321;BME280;40219;55.838;-4.266;2022-07-04T02:05:29;101151.61;;;12.57;53.08
54321;BME280;40219;55.838;-4.266;2022-07-04T02:07:56;101154.96;;;12.49;53.98
54321;BME280;40219;55.838;-4.266;2022-07-04T02:10:23;101151.24;;;12.28;54.46
54321;BME280;40219;55.838;-4.266;2022-07-04T02:12:50;101158.52;;;12.34;54.55
54321;BME280;40219;55.838;-4.266;2022-07-04T02:15:18;101151.08;;;12.84;54.62
54321;BME280;40219;55.838;-4.266;2022-07-04T02:17:44;101148.72;;;12.79;54.63
54321;BME280;40219;55.838;-4.266;2022-07-04T02:20:12;101146.38;;;12.71;54.70
54321;BME280;40219;55.838;-4.266;2022-07-04T02:22:39;101144.39;;;12.13;55.01
54321;BME280;40219;55.838;-4.266;2022-07-04T02:25:06;101148.25;;;12.41;54.80
54321;BME280;40219;55.838;-4.266;2022-07-04T02:27:34;101153.52;;;12.55;54.72
54321;BME280;40219;55.838;-4.266;2022-07-04T02:30:01;101151.56;;;12.14;54.71
54321;BME280;40219;55.838;-4.266;2022-07-04T02:32:28;101152.37;;;12.20;54.20
54321;BME280;40219;55.838;-4.266;2022-07-04T02:34:55;101148.64;;;12.41;54.03
54321;BME280;40219;55.838;-4.266;2022-07-04T02:37:22;101146.08;;;12.19;53.94
54321;BME280;40219;55.838;-4.266;2022-07-04T02:39:49;101144.24;;;12.52;53.61
54321;BME280;40219;55.838;-4.266;2022-07-04T02:42:17;101140.66;;;12.63;53.65
54321;BME280;40219;55.838;-4.266;2022-07-04T02:44:45;101135.90;;;12.82;53.21
54321;BME280;40219;55.838;-4.266;2022-07-04T02:47:13;101132.67;;;12.67;52.89
54321;BME280;40219;55.838;-4.266;2022-07-04T02:49:40;101132.49;;;12.89;53.13
54321;BME280;40219;55.838;-4.266;2022-07-04T02:52:08;101129.75;;;13.03;52.76
54321;BME280;40219;55.838;-4.266;2022-07-04T02:54:36;101130.63;;;12.67;52.68
54321;BME280;40219;55.838;-4.266;2022-07-04T02:57:04;101128.07;;;12.79;52.43
54321;BME280;40219;55.838;-4.266;2022-07-04T02:59:31;101123.06;;;12.90;52.11
54321;BME280;40219;55.838;-4.266;2022-07-04T03:02:00;101126.83;;;12.86;51.44
54321;BME280;40219;55.838;-4.266;2022-07-04T03:04:27;101131.80;;;12.96;52.03
54321;BME280;40219;55.838;-4.266;2022-07-04T03:06:55;101137.24;;;13.02;51.60
54321;BME280;40219;55.838;-4.266;2022-07-04T03:09:23;101137.01;;;12.84;51.44
54321;BME280;40219;55.838;-4.266;2022-07-04T03:11:51;101141.06;;;13.16;51.24
54321;BME280;40219;55.838;-4.266;2022-07-04T03:14:19;101138.65;;;13.27;50.88
54321;BME280;40219;55.838;-4.266;2022-07-04T03:16:46;101136.77;;;13.08;50.51
54321;BME280;40219;55.838;-4.266;2022-07-04T03:19:14;101134.86;;;13.41;50.79
54321;BME280;40219;55.838;-4.266;2022-07-04T03:21:41;101127.08;;;13.36;50.20
54321;BME280;40219;55.838;-4.266;2022-07-04T03:24:08;101121.50;;;13.27;50.28
54321;BME280;40219;55.838;-4.266;2022-07-04T03:26:35;101111.75;;;13.30;50.04
54321;BME280;40219;55.838;-4.266;2022-07-04T03:29:03;101101.08;;;13.50;49.96
54321;BME280;40219;55.838;-4.266;2022-07-04T03:31:30;101108.02;;;13.41;49.37
54321;BME280;40219;55.838;-4.266;2022-07-04T03:33:58;101117.09;;;13.35;49.86
54321;BME280;40219;55.838;-4.266;2022-07-04T03:36:26;101121.53;;;13.18;49.45
54321;BME280;40219;55.838;-4.266;2022-07-04T03:38:54;101135.15;;;13.04;49.58
54321;BME280;40219;55.838;-4.266;2022-07-04T03:41:22;101144.13;;;12.84;50.03
54321;BME280;40219;55.838;-4.266;2022-07-04T03:43:50;101140.29;;;12.95;49.42
54321;BME280;40219;55.838;-4.266;2022-07-04T03:46:18;101146.42;;;12.81;49.99
54321;BME280;40219;55.838;-4.266;2022-07-04T03:48:46;101149.23;;;13.11;49.97
54321;BME280;40219;55.838;-4.266;2022-07-04T03:51:13;101148.63;;;12.96;49.43
54321;BME280;40219;55.838;-4.266;2022-07-04T03:53:40;101146.71;;;12.95;48.78
54321;BME280;40219;55.838;-4.266;2022-07-04T03:56:07;101147.43;;;13.16;48.35
54321;BME280;40219;55.838;-4.266;2022-07-04T03:58:35;101148.38;;;12.91;48.11
54321;BME280;40219;55.838;-4.266;2022-07-04T04:01:02;101146.89;;;13.08;48.51
54321;BME280;40219;55.838;-4.266;2022-07-04T04:03:29;101145.75;;;13.21;48.58
54321;BME280;40219;55.838;-4.266;2022-07-04T04:05:57;101142.82;;;13.35;48.83
54321;BME280;40219;55.838;-4.266;2022-07-04T04:08:24;101143.03;;;13.48;48.27
54321;BME280;40219;55.838;-4.266;2022-07-04T04:10:52;101141.95;;;13.09;48.03
54321;BME280;40219;55.838;-4.266;2022-07-04T04:13:20;101141.39;;;13.65;48.09
54321;BME280;40219;55.838;-4.266;2022-07-04T04:15:48;101141.87;;;13.46;47.85
54321;BME280;40219;55.838;-4.266;2022-07-04T04:18:16;101140.13;;;13.42;47.40
54321;BME280;40219;55.838;-4.266;2022-07-04T04:20:44;101141.70;;;13.28;47.59
54321;BME280;40219;55.838;-4.266;2022-07-04T04:23:12;101142.18;;;13.21;46.61
54321;BME280;40219;55.838;-4.266;2022-07-04T04:25:39;101139.37;;;13.12;46.72
54321;BME280;40219;55.838;-4.266;2022-07-04T04:28:06;101137.24;;;13.39;47.14
54321;BME280;40219;55.838;-4.266;2022-07-04T04:30:33;101131.73;;;13.25;47.06
54321;BME280;40219;55.838;-4.266;2022-07-04T04:33:00;101141.52;;;13.37;46.85
54321;BME280;40219;55.838;-4.266;2022-07-04T04:35:27;101142.29;;;13.55;46.87
54321;BME280;40219;55.838;-4.266;2022-07-04T04:37:54;101143.91;;;13.86;46.31
54321;BME280;40219;55.838;-4.266;2022-07-04T04:40:21;101141.85;;;13.77;45.91
54321;BME280;40219;55.838;-4.266;2022-07-04T04:42:48;101144.01;;;13.50;46.04
54321;BME280;40219;55.838;-4.266;2022-07-04T04:45:15;101147.46;;;13.84;45.58
54321;BME280;40219;55.838;-4.266;2022-07-04T04:47:42;101150.90;;;13.89;45.42
54321;BME280;40219;55.838;-4.266;2022-07-04T04:50:09;101148.52;;;13.92;45.23
54321;BME280;40219;55.838;-4.266;2022-07-04T04:52:37;101147.11;;;13.89;45.05
54321;BME280;40219;55.838;-4.266;2022-07-04T04:55:05;101151.55;;;13.87;45.48
54321;BME280;40219;55.838;-4.266;2022-07-04T04:57:33;101155.13;;;13.93;45.40
54321;BME280;40219;55.838;-4.266;2022-07-04T05:00:01;101152.64;;;14.21;44.97
54321;BME280;40219;55.838;-4.266;2022-07-04T05:02:30;101156.37;;;13.83;45.27
54321;BME280;40219;55.838;-4.266;2022-07-04T05:04:57;101160.41;;;14.15;45.26
54321;BME280;40219;55.838;-4.266;2022-07-04T05:07:25;101161.03;;;13.94;45.59
54321;BME280;40219;55.838;-4.266;2022-07-04T05:09:52;101167.85;;;13.97;45.67
54321;BME280;40219;55.838;-4.266;2022-07-04T05:12:20;101167.22;;;13.74;45.85
54321;BME280;40219;55.838;-4.266;2022-07-04T05:14:48;101164.67;;;14.13;45.45
54321;BME280;40219;55.838;-4.266;2022-07-04T05:17:16;101169.66;;;14.09;45.08
54321;BME280;40219;55.838;-4.266;2022-07-04T05:19:44;101164.13;;;14.15;45.36
54321;BME280;40219;55.838;-4.266;2022-07-04T05:22:12;101163.73;;;14.27;45.39
54321;BME280;40219;55.838;-4.266;2022-07-04T05:24:39;101167.35;;;14.19;45.29
54321;BME280;40219;55.838;-4.266;2022-07-04T05:27:08;101159.16;;;14.64;44.56
54321;BME280;40219;55.838;-4.266;2022-07-04T05:29:35;101158.85;;;14.36;44.57
54321;BME280;40219;55.838;-4.266;2022-07-04T05:32:02;101151.89;;;14.29;44.57
54321;BME280;40219;55.838;-4.266;2022-07-04T05:34:30;101155.23;;;14.68;44.72
54321;BME280;40219;55.838;-4.266;2022-07-04T05:36:57;101154.71;;;14.83;44.64
54321;BME280;40219;55.838;-4.266;2022-07-04T05:39:24;101160.06;;;14.73;44.91
54321;BME280;40219;55.838;-4.266;2022-07-04T05:41:52;101164.67;;;14.96;44.60
54321;BME280;40219;55.838;-4.266;2022-07-04T05:44:20;101168.83;;;15.39;44.30
54321;BME280;40219;55.838;-4.266;2022-07-04T05:46:49;101171.57;;;15.15;43.34
54321;BME280;40219;55.838;-4.266;2022-07-04T05:49:16;101167.05;;;15.45;43.30
54321;BME280;40219;55.838;-4.266;2022-07-04T05:51:44;101178.17;;;15.60;42.92
54321;BME280;40219;55.838;-4.266;2022-07-04T05:54:12;101181.78;;;15.69;42.72
54321;BME280;40219;55.838;-4.266;2022-07-04T05:56:40;101179.41;;;15.65;42.65
54321;BME280;40219;55.838;-4.266;2022-07-04T05:59:08;101187.72;;;15.49;42.28
54321;BME280;40219;55.838;-4.266;2022-07-04T06:01:36;101185.18;;;16.09;42.42
54321;BME280;40219;55.838;-4.266;2022-07-04T06:04:04;101175.87;;;15.99;41.76
54321;BME280;40219;55.838;-4.266;2022-07-04T06:06:32;101185.83;;;16.06;41.05
54321;BME280;40219;55.838;-4.266;2022-07-04T06:09:01;101182.30;;;16.10;41.29
54321;BME280;40219;55.838;-4.266;2022-07-04T06:11:29;101179.85;;;15.98;41.52
54321;BME280;40219;55.838;-4.266;2022-07-04T06:13:57;101178.77;;;16.16;40.81
54321;BME280;40219;55.838;-4.266;2022-07-04T06:16:24;101175.72;;;15.79;41.14
54321;BME280;40219;55.838;-4.266;2022-07-04T06:18:52;101178.26;;;16.41;40.85
54321;BME280;40219;55.838;-4.266;2022-07-04T06:21:20;101177.07;;;16.07;40.61
54321;BME280;40219;55.838;-4.266;2022-07-04T06:23:48;101184.86;;;16.10;40.45
54321;BME280;40219;55.838;-4.266;2022-07-04T06:26:16;101175.75;;;15.82;40.86
54321;BME280;40219;55.838;-4.266;2022-07-04T06:28:43;101168.51;;;15.76;41.18
54321;BME280;40219;55.838;-4.266;2022-07-04T06:31:11;101169.00;;;15.86;41.01
54321;BME280;40219;55.838;-4.266;2022-07-04T06:33:38;101169.37;;;15.87;41.18
54321;BME280;40219;55.838;-4.266;2022-07-04T06:36:05;101170.24;;;15.82;41.30
54321;BME280;40219;55.838;-4.266;2022-07-04T06:38:32;101168.37;;;16.30;41.18
54321;BME280;40219;55.838;-4.266;2022-07-04T06:40:59;101179.31;;;15.88;41.01
54321;BME280;40219;55.838;-4.266;2022-07-04T06:43:27;101186.43;;;16.16;41.05
54321;BME280;40219;55.838;-4.266;2022-07-04T06:45:54;101198.12;;;15.98;41.41
54321;BME280;40219;55.838;-4.266;2022-07-04T06:48:21;101194.00;;;15.99;41.54
54321;BME280;40219;55.838;-4.266;2022-07-04T06:50:49;101196.15;;;16.26;41.40
54321;BME280;40219;55.838;-4.266;2022-07-04T06:53:17;101194.33;;;16.20;40.92
54321;BME280;40219;55.838;-4.266;2022-07-04T06:55:45;101200.38;;;16.68;41.24
54321;BME280;40219;55.838;-4.266;2022-07-04T06:58:13;101207.35;;;16.24;41.27
54321;BME280;40219;55.838;-4.266;2022-07-04T07:00:41;101209.99;;;16.50;41.54
54321;BME280;40219;55.838;-4.266;2022-07-04T07:03:08;101217.36;;;16.59;40.96
54321;BME280;40219;55.838;-4.266;2022-07-04T07:05:36;101219.85;;;17.19;40.46
54321;BME280;40219;55.838;-4.266;2022-07-04T07:08:04;101216.33;;;17.36;39.73
54321;BME280;40219;55.838;-4.266;2022-07-04T07:10:32;101210.47;;;17.59;38.95
54321;BME280;40219;55.838;-4.266;2022-07-04T07:13:00;101208.91;;;17.04;38.85
54321;BME280;40219;55.838;-4.266;2022-07-04T07:15:28;101217.02;;;17.44;38.16
54321;BME280;40219;55.838;-4.266;2022-07-04T07:17:55;101218.25;;;17.62;37.38
54321;BME280;40219;55.838;-4.266;2022-07-04T07:20:23;101220.22;;;17.54;37.14
54321;BME280;40219;55.838;-4.266;2022-07-04T07:22:51;101217.65;;;17.31;37.46
54321;BME280;40219;55.838;-4.266;2022-07-04T07:25:19;101225.41;;;17.60;37.68
54321;BME280;40219;55.838;-4.266;2022-07-04T07:27:47;101214.17;;;17.36;37.80
54321;BME280;40219;55.838;-4.266;2022-07-04T07:30:15;101209.54;;;17.42;37.30
54321;BME280;40219;55.838;-4.266;2022-07-04T07:32:43;101210.74;;;17.66;37.70
54321;BME280;40219;55.838;-4.266;2022-07-04T07:35:11;101213.64;;;17.65;37.34
54321;BME280;40219;55.838;-4.266;2022-07-04T07:37:38;101221.15;;;17.27;37.55
54321;BME280;40219;55.838;-4.266;2022-07-04T07:40:07;101217.87;;;17.42;37.75
54321;BME280;40219;55.838;-4.266;2022-07-04T07:42:35;101221.56;;;18.12;37.22
54321;BME280;40219;55.838;-4.266;2022-07-04T07:45:03;101230.61;;;18.47;36.25
54321;BME280;40219;55.838;-4.266;2022-07-04T07:47:30;101226.88;;;19.23;35.32
54321;BME280;40219;55.838;-4.266;2022-07-04T07:49:58;101230.69;;;19.13;34.43
54321;BME280;40219;55.838;-4.266;2022-07-04T07:52:27;101234.36;;;18.91;34.84
54321;BME280;40219;55.838;-4.266;2022-07-04T07:54:55;101226.58;;;18.55;34.83
54321;BME280;40219;55.838;-4.266;2022-07-04T07:57:23;101218.45;;;18.14;35.13
54321;BME280;40219;55.838;-4.266;2022-07-04T07:59:51;101222.29;;;17.93;35.75
54321;BME280;40219;55.838;-4.266;2022-07-04T08:02:18;101229.82;;;17.70;36.08
54321;BME280;40219;55.838;-4.266;2022-07-04T08:04:46;101239.07;;;17.51;35.82
54321;BME280;40219;55.838;-4.266;2022-07-04T08:07:14;101242.91;;;18.15;35.58
54321;BME280;40219;55.838;-4.266;2022-07-04T08:09:42;101256.44;;;19.12;34.86
54321;BME280;40219;55.838;-4.266;2022-07-04T08:12:10;101248.17;;;19.45;34.12
54321;BME280;40219;55.838;-4.266;2022-07-04T08:14:37;101252.41;;;19.06;34.11
54321;BME280;40219;55.838;-4.266;2022-07-04T08:17:05;101253.20;;;18.66;34.17
54321;BME280;40219;55.838;-4.266;2022-07-04T08:19:32;101257.80;;;18.72;33.88
54321;BME280;40219;55.838;-4.266;2022-07-04T08:22:00;101258.13;;;18.43;34.26
54321;BME280;40219;55.838;-4.266;2022-07-04T08:24:27;101255.12;;;18.02;34.27
54321;BME280;40219;55.838;-4.266;2022-07-04T08:26:54;101267.16;;;18.47;34.43
54321;BME280;40219;55.838;-4.266;2022-07-04T08:29:21;101276.88;;;18.24;34.41
54321;BME280;40219;55.838;-4.266;2022-07-04T08:31:49;101273.45;;;18.25;34.62
54321;BME280;40219;55.838;-4.266;2022-07-04T08:34:17;101282.55;;;18.22;34.43
54321;BME280;40219;55.838;-4.266;2022-07-04T08:36:45;101279.70;;;18.61;34.92
54321;BME280;40219;55.838;-4.266;2022-07-04T08:39:13;101285.11;;;18.26;35.25
54321;BME280;40219;55.838;-4.266;2022-07-04T08:41:42;101292.52;;;18.84;34.76
54321;BME280;40219;55.838;-4.266;2022-07-04T08:44:10;101292.72;;;19.31;33.91
54321;BME280;40219;55.838;-4.266;2022-07-04T08:46:39;101280.21;;;19.21;33.13
54321;BME280;40219;55.838;-4.266;2022-07-04T08:49:11;101285.77;;;19.50;32.43
54321;BME280;40219;55.838;-4.266;2022-07-04T08:51:50;101281.25;;;19.30;32.54
54321;BME280;40219;55.838;-4.266;2022-07-04T08:54:19;101279.94;;;19.23;32.37
54321;BME280;40219;55.838;-4.266;2022-07-04T08:56:48;101294.96;;;18.85;32.22
54321;BME280;40219;55.838;-4.266;2022-07-04T08:59:16;101277.27;;;18.51;32.45
54321;BME280;40219;55.838;-4.266;2022-07-04T09:01:44;101266.41;;;18.33;32.96
54321;BME280;40219;55.838;-4.266;2022-07-04T09:04:14;101272.94;;;18.07;33.72
54321;BME280;40219;55.838;-4.266;2022-07-04T09:06:41;101266.20;;;17.56;34.42
54321;BME280;40219;55.838;-4.266;2022-07-04T09:09:08;101268.93;;;17.67;34.63
54321;BME280;40219;55.838;-4.266;2022-07-04T09:11:35;101264.06;;;18.11;34.44
54321;BME280;40219;55.838;-4.266;2022-07-04T09:14:02;101264.00;;;18.27;33.95
54321;BME280;40219;55.838;-4.266;2022-07-04T09:16:29;101263.78;;;18.77;33.61
54321;BME280;40219;55.838;-4.266;2022-07-04T09:18:56;101277.11;;;18.75;33.33
54321;BME280;40219;55.838;-4.266;2022-07-04T09:21:42;101272.40;;;19.01;33.02
54321;BME280;40219;55.838;-4.266;2022-07-04T09:24:10;101278.52;;;19.35;32.20
54321;BME280;40219;55.838;-4.266;2022-07-04T09:26:41;101281.72;;;19.79;31.39
54321;BME280;40219;55.838;-4.266;2022-07-04T09:29:11;101292.43;;;19.99;30.53
54321;BME280;40219;55.838;-4.266;2022-07-04T09:31:39;101288.55;;;20.35;30.42
54321;BME280;40219;55.838;-4.266;2022-07-04T09:34:07;101290.59;;;20.67;29.71
54321;BME280;40219;55.838;-4.266;2022-07-04T09:36:40;101294.36;;;21.11;29.69
54321;BME280;40219;55.838;-4.266;2022-07-04T09:39:12;101294.36;;;20.74;29.82
54321;BME280;40219;55.838;-4.266;2022-07-04T09:41:58;101292.42;;;20.11;31.16
54321;BME280;40219;55.838;-4.266;2022-07-04T09:44:28;101296.35;;;19.63;33.09
54321;BME280;40219;55.838;-4.266;2022-07-04T09:46:56;101294.10;;;20.42;32.94
54321;BME280;40219;55.838;-4.266;2022-07-04T09:49:24;101300.89;;;20.44;32.71
54321;BME280;40219;55.838;-4.266;2022-07-04T09:51:52;101300.76;;;19.90;32.71
54321;BME280;40219;55.838;-4.266;2022-07-04T09:54:23;101299.34;;;20.83;31.73
54321;BME280;40219;55.838;-4.266;2022-07-04T09:56:53;101296.40;;;20.22;31.17
54321;BME280;40219;55.838;-4.266;2022-07-04T09:59:22;101303.05;;;20.35;31.37
54321;BME280;40219;55.838;-4.266;2022-07-04T10:01:50;101294.75;;;20.64;31.46
54321;BME280;40219;55.838;-4.266;2022-07-04T10:04:17;101304.24;;;20.44;31.09
54321;BME280;40219;55.838;-4.266;2022-07-04T10:06:45;101299.03;;;20.41;30.75
54321;BME280;40219;55.838;-4.266;2022-07-04T10:09:15;101287.57;;;20.84;31.19
54321;BME280;40219;55.838;-4.266;2022-07-04T10:11:46;101298.24;;;19.99;30.74
54321;BME280;40219;55.838;-4.266;2022-07-04T10:14:14;101284.82;;;19.37;30.83
54321;BME280;40219;55.838;-4.266;2022-07-04T10:16:42;101288.61;;;20.27;30.52
54321;BME280;40219;55.838;-4.266;2022-07-04T10:19:11;101299.76;;;19.80;30.70
54321;BME280;40219;55.838;-4.266;2022-07-04T10:21:39;101302.85;;;19.85;31.16
54321;BME280;40219;55.838;-4.266;2022-07-04T10:24:07;101294.08;;;19.79;31.29
54321;BME280;40219;55.838;-4.266;2022-07-04T10:26:35;101301.37;;;19.83;30.94
54321;BME280;40219;55.838;-4.266;2022-07-04T10:29:03;101311.35;;;20.53;30.16
54321;BME280;40219;55.838;-4.266;2022-07-04T10:31:31;101303.69;;;20.77;29.61
54321;BME280;40219;55.838;-4.266;2022-07-04T10:34:02;101317.27;;;20.27;29.87
54321;BME280;40219;55.838;-4.266;2022-07-04T10:36:29;101310.90;;;19.95;30.14
54321;BME280;40219;55.838;-4.266;2022-07-04T10:38:59;101312.10;;;20.81;29.78
54321;BME280;40219;55.838;-4.266;2022-07-04T10:41:28;101326.08;;;21.08;29.44
54321;BME280;40219;55.838;-4.266;2022-07-04T10:44:00;101320.92;;;20.06;30.50
54321;BME280;40219;55.838;-4.266;2022-07-04T10:46:31;101322.86;;;20.08;30.14
54321;BME280;40219;55.838;-4.266;2022-07-04T10:49:01;101320.55;;;19.99;30.59
54321;BME280;40219;55.838;-4.266;2022-07-04T10:51:35;101325.44;;;19.95;30.17
54321;BME280;40219;55.838;-4.266;2022-07-04T10:54:05;101322.79;;;19.40;29.97
54321;BME280;40219;55.838;-4.266;2022-07-04T10:56:40;101321.83;;;19.75;30.26
54321;BME280;40219;55.838;-4.266;2022-07-04T10:59:09;101341.86;;;20.10;29.15
54321;BME280;40219;55.838;-4.266;2022-07-04T11:01:37;101328.30;;;20.81;28.76
54321;BME280;40219;55.838;-4.266;2022-07-04T11:04:05;101341.71;;;21.15;28.69
54321;BME280;40219;55.838;-4.266;2022-07-04T11:07:05;101352.65;;;21.08;28.68
54321;BME280;40219;55.838;-4.266;2022-07-04T11:09:33;101341.64;;;20.83;28.05
54321;BME280;40219;55.838;-4.266;2022-07-04T11:12:02;101344.02;;;20.23;28.60
54321;BME280;40219;55.838;-4.266;2022-07-04T11:14:31;101346.81;;;20.57;29.03
54321;BME280;40219;55.838;-4.266;2022-07-04T11:16:59;101334.70;;;21.52;28.02
54321;BME280;40219;55.838;-4.266;2022-07-04T11:19:27;101343.38;;;21.94;27.54
54321;BME280;40219;55.838;-4.266;2022-07-04T11:21:57;101354.83;;;22.04;27.38
54321;BME280;40219;55.838;-4.266;2022-07-04T11:24:25;101355.10;;;22.01;27.20
54321;BME280;40219;55.838;-4.266;2022-07-04T11:26:54;101356.93;;;21.59;27.75
54321;BME280;40219;55.838;-4.266;2022-07-04T11:29:22;101368.26;;;21.37;28.16
54321;BME280;40219;55.838;-4.266;2022-07-04T11:31:51;101370.80;;;20.91;28.80
54321;BME280;40219;55.838;-4.266;2022-07-04T11:34:20;101373.89;;;20.67;29.14
54321;BME280;40219;55.838;-4.266;2022-07-04T11:36:50;101370.83;;;20.37;30.00
54321;BME280;40219;55.838;-4.266;2022-07-04T11:39:19;101378.61;;;20.36;29.92
54321;BME280;40219;55.838;-4.266;2022-07-04T11:41:49;101385.65;;;19.94;30.57
54321;BME280;40219;55.838;-4.266;2022-07-04T11:44:20;101384.06;;;20.65;30.38
54321;BME280;40219;55.838;-4.266;2022-07-04T11:46:47;101394.34;;;20.65;30.37
54321;BME280;40219;55.838;-4.266;2022-07-04T11:49:15;101393.29;;;21.50;28.98
54321;BME280;40219;55.838;-4.266;2022-07-04T11:51:44;101395.12;;;21.30;29.42
54321;BME280;40219;55.838;-4.266;2022-07-04T11:54:13;101395.70;;;21.63;28.92
54321;BME280;40219;55.838;-4.266;2022-07-04T11:56:41;101388.80;;;22.69;27.76
54321;BME280;40219;55.838;-4.266;2022-07-04T11:59:12;101411.30;;;22.39;26.31
54321;BME280;40219;55.838;-4.266;2022-07-04T12:01:40;101397.21;;;22.44;26.69
54321;BME280;40219;55.838;-4.266;2022-07-04T12:04:16;101405.32;;;22.45;26.72
54321;BME280;40219;55.838;-4.266;2022-07-04T12:06:45;101393.56;;;21.86;27.32
54321;BME280;40219;55.838;-4.266;2022-07-04T12:09:14;101401.06;;;22.42;27.33
54321;BME280;40219;55.838;-4.266;2022-07-04T12:11:59;101393.07;;;22.88;26.65
54321;BME280;40219;55.838;-4.266;2022-07-04T12:14:27;101391.70;;;23.02;26.15
54321;BME280;40219;55.838;-4.266;2022-07-04T12:17:14;101388.44;;;23.20;25.79
54321;BME280;40219;55.838;-4.266;2022-07-04T12:19:58;101401.37;;;23.04;25.96
54321;BME280;40219;55.838;-4.266;2022-07-04T12:22:29;101390.21;;;22.49;26.31
54321;BME280;40219;55.838;-4.266;2022-07-04T12:24:58;101401.33;;;22.50;27.15
54321;BME280;40219;55.838;-4.266;2022-07-04T12:27:27;101410.47;;;21.84;27.95
54321;BME280;40219;55.838;-4.266;2022-07-04T12:29:57;101416.66;;;22.46;28.28
54321;BME280;40219;55.838;-4.266;2022-07-04T12:32:45;101423.05;;;22.48;29.06
54321;BME280;40219;55.838;-4.266;2022-07-04T12:35:41;101409.47;;;22.19;29.94
54321;BME280;40219;55.838;-4.266;2022-07-04T12:38:11;101400.42;;;22.94;28.58
54321;BME280;40219;55.838;-4.266;2022-07-04T12:40:52;101400.74;;;23.20;28.46
54321;BME280;40219;55.838;-4.266;2022-07-04T12:43:19;101406.91;;;23.04;28.17
54321;BME280;40219;55.838;-4.266;2022-07-04T12:45:49;101407.99;;;22.47;27.98
54321;BME280;40219;55.838;-4.266;2022-07-04T12:48:21;101405.94;;;21.81;28.69